Terminal Aerodrome Forecast
Issued by NWS

Home | Current Version | Previous Version | Text Only | Print | Product List | Glossary On
Versions: 1 2 3 4 5 6 7 8 9 10 11 12 13 14
000
FTUS42 TJSJ 231100
TAFJPS
TAF
TJPS 231122Z 2312/2412 07005KT P6SM VCSH FEW020 BKN050 BKN100
     FM231430 10009KT P6SM FEW030 SCT060 SCT120
     FM231730 15012KT P6SM VCSH SCT025 BKN050
     FM232230 07005KT P6SM SCT030 SCT120=

USA.gov is the U.S. government's official web portal to all federal, state and local government web resources and services.